Rimbey, Canada
Current Conditions -  °F | °C
As of 3:00 PM on Thursday 27 Nov 2014 (Local Time) from CYQF Reporting Station
Light Snow Light Snow  
Wind Chill: -7°   Ceiling: 2100
Heat Index: 10°   Visibility: 3mi
Dew Point:   Wind: 16mph
Humidity: 85%   Direction: 20°NNE
Pressure: 29.84"   Gusts: NA
Location:  52.63°N, 114.22°W
Report Text: CYQF 272200Z 02014KT 3SM -FZDZ -SN DRSN OVC021 M12/M14 A2984 RMK SC8 SLP161
Loading
Personal Weather Stations






























Interactive Weather Map New forecast layout! Learn more

10-Day Weather Forecast

Advertisements
Track Severe Weather on mobile